<?xml version="1.0" encoding="UTF-8" standalone="no" ?>
<gpx xmlns="http://www.topografix.com/GPX/1/1" xmlns:xsi="http://www.w3.org/2001/XMLSchema-instance" xsi:schemaLocation="http://www.topografix.com/GPX/1/1 http://www.topografix.com/GPX/1/1/gpx.xsd" version="1.1" creator="VisuGPX - https://www.visugpx.com">
  <metadata>
    <name>Plateau de Bayard-Gap</name>
    <desc><![CDATA[Projet circuit pédestre famille et raquettes sur le golf de Bayard,qui sera entièrement balisé.]]></desc>
  </metadata>
  <trk>
    <name><![CDATA[Plateau de Bayard]]></name>
    <trkseg>
      <trkpt lat="44.59821" lon="6.08619">
        <ele>1161.5999755859</ele>
        <time>2016-10-12T11:58:56Z</time>
      </trkpt>
      <trkpt lat="44.59826" lon="6.08619">
        <ele>1161.5999755859</ele>
        <time>2016-10-12T11:58:57Z</time>
      </trkpt>
      <trkpt lat="44.59821" lon="6.08615">
        <ele>1164</ele>
        <time>2016-10-12T11:59:04Z</time>
      </trkpt>
      <trkpt lat="44.59814" lon="6.08619">
        <ele>1165.1999511719</ele>
        <time>2016-10-12T11:59:20Z</time>
      </trkpt>
      <trkpt lat="44.59805" lon="6.08632">
        <ele>1164.8000488281</ele>
        <time>2016-10-12T11:59:34Z</time>
      </trkpt>
      <trkpt lat="44.59798" lon="6.08657">
        <ele>1164</ele>
        <time>2016-10-12T12:00:03Z</time>
      </trkpt>
      <trkpt lat="44.59791" lon="6.087">
        <ele>1163.5999755859</ele>
        <time>2016-10-12T12:00:34Z</time>
      </trkpt>
      <trkpt lat="44.59785" lon="6.08718">
        <ele>1163.1999511719</ele>
        <time>2016-10-12T12:00:45Z</time>
      </trkpt>
      <trkpt lat="44.59781" lon="6.08727">
        <ele>1163.4000244141</ele>
        <time>2016-10-12T12:00:51Z</time>
      </trkpt>
      <trkpt lat="44.59778" lon="6.08733">
        <ele>1163.4000244141</ele>
        <time>2016-10-12T12:00:54Z</time>
      </trkpt>
      <trkpt lat="44.59767" lon="6.08765">
        <ele>1163</ele>
        <time>2016-10-12T12:01:14Z</time>
      </trkpt>
      <trkpt lat="44.5976" lon="6.08797">
        <ele>1162.8000488281</ele>
        <time>2016-10-12T12:01:39Z</time>
      </trkpt>
      <trkpt lat="44.59755" lon="6.08837">
        <ele>1163</ele>
        <time>2016-10-12T12:02:00Z</time>
      </trkpt>
      <trkpt lat="44.59755" lon="6.08849">
        <ele>1163</ele>
        <time>2016-10-12T12:02:05Z</time>
      </trkpt>
      <trkpt lat="44.59751" lon="6.08887">
        <ele>1162.8000488281</ele>
        <time>2016-10-12T12:02:28Z</time>
      </trkpt>
      <trkpt lat="44.59751" lon="6.08888">
        <ele>1162.8000488281</ele>
        <time>2016-10-12T12:02:29Z</time>
      </trkpt>
      <trkpt lat="44.5975" lon="6.08893">
        <ele>1162.5999755859</ele>
        <time>2016-10-12T12:02:32Z</time>
      </trkpt>
      <trkpt lat="44.59747" lon="6.08926">
        <ele>1162.1999511719</ele>
        <time>2016-10-12T12:02:54Z</time>
      </trkpt>
      <trkpt lat="44.59743" lon="6.08957">
        <ele>1162.1999511719</ele>
        <time>2016-10-12T12:03:21Z</time>
      </trkpt>
      <trkpt lat="44.59743" lon="6.08977">
        <ele>1162</ele>
        <time>2016-10-12T12:03:47Z</time>
      </trkpt>
      <trkpt lat="44.59743" lon="6.08987">
        <ele>1162</ele>
        <time>2016-10-12T12:03:59Z</time>
      </trkpt>
      <trkpt lat="44.59745" lon="6.09012">
        <ele>1161.8000488281</ele>
        <time>2016-10-12T12:04:25Z</time>
      </trkpt>
      <trkpt lat="44.59745" lon="6.09047">
        <ele>1161.8000488281</ele>
        <time>2016-10-12T12:04:53Z</time>
      </trkpt>
      <trkpt lat="44.59746" lon="6.09088">
        <ele>1161.5999755859</ele>
        <time>2016-10-12T12:05:21Z</time>
      </trkpt>
      <trkpt lat="44.59751" lon="6.09139">
        <ele>1161.1999511719</ele>
        <time>2016-10-12T12:05:52Z</time>
      </trkpt>
      <trkpt lat="44.59753" lon="6.09149">
        <ele>1161.1999511719</ele>
        <time>2016-10-12T12:05:56Z</time>
      </trkpt>
      <trkpt lat="44.59756" lon="6.0919">
        <ele>1161.1999511719</ele>
        <time>2016-10-12T12:06:17Z</time>
      </trkpt>
      <trkpt lat="44.59756" lon="6.09209">
        <ele>1161</ele>
        <time>2016-10-12T12:06:28Z</time>
      </trkpt>
      <trkpt lat="44.59757" lon="6.09213">
        <ele>1161</ele>
        <time>2016-10-12T12:06:30Z</time>
      </trkpt>
      <trkpt lat="44.59758" lon="6.0924">
        <ele>1161</ele>
        <time>2016-10-12T12:06:43Z</time>
      </trkpt>
      <trkpt lat="44.5976" lon="6.09273">
        <ele>1161</ele>
        <time>2016-10-12T12:07:08Z</time>
      </trkpt>
      <trkpt lat="44.59763" lon="6.09287">
        <ele>1160.4000244141</ele>
        <time>2016-10-12T12:07:18Z</time>
      </trkpt>
      <trkpt lat="44.59773" lon="6.09319">
        <ele>1160.1999511719</ele>
        <time>2016-10-12T12:07:38Z</time>
      </trkpt>
      <trkpt lat="44.59783" lon="6.09349">
        <ele>1160.1999511719</ele>
        <time>2016-10-12T12:07:58Z</time>
      </trkpt>
      <trkpt lat="44.59807" lon="6.09367">
        <ele>1161.5999755859</ele>
        <time>2016-10-12T12:08:24Z</time>
      </trkpt>
      <trkpt lat="44.59832" lon="6.09374">
        <ele>1164</ele>
        <time>2016-10-12T12:08:50Z</time>
      </trkpt>
      <trkpt lat="44.59865" lon="6.09378">
        <ele>1166.8000488281</ele>
        <time>2016-10-12T12:09:22Z</time>
      </trkpt>
      <trkpt lat="44.59878" lon="6.09378">
        <ele>1167.8000488281</ele>
        <time>2016-10-12T12:09:36Z</time>
      </trkpt>
      <trkpt lat="44.59897" lon="6.0936">
        <ele>1169.5999755859</ele>
        <time>2016-10-12T12:09:58Z</time>
      </trkpt>
      <trkpt lat="44.59912" lon="6.09337">
        <ele>1170.8000488281</ele>
        <time>2016-10-12T12:10:18Z</time>
      </trkpt>
      <trkpt lat="44.59927" lon="6.09333">
        <ele>1173.8000488281</ele>
        <time>2016-10-12T12:10:41Z</time>
      </trkpt>
      <trkpt lat="44.59936" lon="6.09333">
        <ele>1175.1999511719</ele>
        <time>2016-10-12T12:10:54Z</time>
      </trkpt>
      <trkpt lat="44.59943" lon="6.09334">
        <ele>1175.8000488281</ele>
        <time>2016-10-12T12:11:14Z</time>
      </trkpt>
      <trkpt lat="44.59955" lon="6.09334">
        <ele>1176.8000488281</ele>
        <time>2016-10-12T12:11:50Z</time>
      </trkpt>
      <trkpt lat="44.59962" lon="6.09327">
        <ele>1177.1999511719</ele>
        <time>2016-10-12T12:12:14Z</time>
      </trkpt>
      <trkpt lat="44.59968" lon="6.09319">
        <ele>1177.5999755859</ele>
        <time>2016-10-12T12:12:47Z</time>
      </trkpt>
      <trkpt lat="44.59981" lon="6.09308">
        <ele>1180.5999755859</ele>
        <time>2016-10-12T12:13:05Z</time>
      </trkpt>
      <trkpt lat="44.60003" lon="6.09302">
        <ele>1183</ele>
        <time>2016-10-12T12:13:33Z</time>
      </trkpt>
      <trkpt lat="44.60018" lon="6.09312">
        <ele>1185.1999511719</ele>
        <time>2016-10-12T12:14:00Z</time>
      </trkpt>
      <trkpt lat="44.60046" lon="6.09329">
        <ele>1188</ele>
        <time>2016-10-12T12:14:31Z</time>
      </trkpt>
      <trkpt lat="44.60075" lon="6.09324">
        <ele>1190.5999755859</ele>
        <time>2016-10-12T12:15:01Z</time>
      </trkpt>
      <trkpt lat="44.60093" lon="6.09326">
        <ele>1193.5999755859</ele>
        <time>2016-10-12T12:15:22Z</time>
      </trkpt>
      <trkpt lat="44.60113" lon="6.09345">
        <ele>1196</ele>
        <time>2016-10-12T12:15:49Z</time>
      </trkpt>
      <trkpt lat="44.60135" lon="6.09375">
        <ele>1198.4000244141</ele>
        <time>2016-10-12T12:16:19Z</time>
      </trkpt>
      <trkpt lat="44.60143" lon="6.09384">
        <ele>1198.5999755859</ele>
        <time>2016-10-12T12:16:29Z</time>
      </trkpt>
      <trkpt lat="44.60163" lon="6.09412">
        <ele>1201.8000488281</ele>
        <time>2016-10-12T12:16:55Z</time>
      </trkpt>
      <trkpt lat="44.60165" lon="6.09422">
        <ele>1202.5999755859</ele>
        <time>2016-10-12T12:17:03Z</time>
      </trkpt>
      <trkpt lat="44.60176" lon="6.09444">
        <ele>1203.8000488281</ele>
        <time>2016-10-12T12:17:24Z</time>
      </trkpt>
      <trkpt lat="44.60189" lon="6.09475">
        <ele>1207</ele>
        <time>2016-10-12T12:17:51Z</time>
      </trkpt>
      <trkpt lat="44.602" lon="6.09495">
        <ele>1210</ele>
        <time>2016-10-12T12:18:11Z</time>
      </trkpt>
      <trkpt lat="44.60218" lon="6.09523">
        <ele>1212.5999755859</ele>
        <time>2016-10-12T12:18:42Z</time>
      </trkpt>
      <trkpt lat="44.60222" lon="6.09525">
        <ele>1213.4000244141</ele>
        <time>2016-10-12T12:18:49Z</time>
      </trkpt>
      <trkpt lat="44.60219" lon="6.09528">
        <ele>1216.5999755859</ele>
        <time>2016-10-12T12:19:14Z</time>
      </trkpt>
      <trkpt lat="44.6022" lon="6.09505">
        <ele>1218</ele>
        <time>2016-10-12T12:19:39Z</time>
      </trkpt>
      <trkpt lat="44.60238" lon="6.09479">
        <ele>1220.1999511719</ele>
        <time>2016-10-12T12:20:09Z</time>
      </trkpt>
      <trkpt lat="44.60252" lon="6.09462">
        <ele>1221.5999755859</ele>
        <time>2016-10-12T12:20:34Z</time>
      </trkpt>
      <trkpt lat="44.60263" lon="6.0944">
        <ele>1224</ele>
        <time>2016-10-12T12:21:03Z</time>
      </trkpt>
      <trkpt lat="44.60255" lon="6.0942">
        <ele>1227</ele>
        <time>2016-10-12T12:21:30Z</time>
      </trkpt>
      <trkpt lat="44.60264" lon="6.09384">
        <ele>1230</ele>
        <time>2016-10-12T12:21:59Z</time>
      </trkpt>
      <trkpt lat="44.60277" lon="6.09358">
        <ele>1233.1999511719</ele>
        <time>2016-10-12T12:22:23Z</time>
      </trkpt>
      <trkpt lat="44.60296" lon="6.09355">
        <ele>1235.8000488281</ele>
        <time>2016-10-12T12:22:45Z</time>
      </trkpt>
      <trkpt lat="44.60309" lon="6.09369">
        <ele>1238.1999511719</ele>
        <time>2016-10-12T12:23:08Z</time>
      </trkpt>
      <trkpt lat="44.60333" lon="6.09373">
        <ele>1241</ele>
        <time>2016-10-12T12:23:39Z</time>
      </trkpt>
      <trkpt lat="44.60352" lon="6.09365">
        <ele>1244</ele>
        <time>2016-10-12T12:24:04Z</time>
      </trkpt>
      <trkpt lat="44.60369" lon="6.09362">
        <ele>1246.5999755859</ele>
        <time>2016-10-12T12:24:33Z</time>
      </trkpt>
      <trkpt lat="44.60388" lon="6.09373">
        <ele>1248</ele>
        <time>2016-10-12T12:25:06Z</time>
      </trkpt>
      <trkpt lat="44.60382" lon="6.094">
        <ele>1250.4000244141</ele>
        <time>2016-10-12T12:25:33Z</time>
      </trkpt>
      <trkpt lat="44.60382" lon="6.09428">
        <ele>1252.1999511719</ele>
        <time>2016-10-12T12:25:58Z</time>
      </trkpt>
      <trkpt lat="44.604" lon="6.09456">
        <ele>1254.8000488281</ele>
        <time>2016-10-12T12:26:32Z</time>
      </trkpt>
      <trkpt lat="44.604" lon="6.09479">
        <ele>1257.4000244141</ele>
        <time>2016-10-12T12:27:00Z</time>
      </trkpt>
      <trkpt lat="44.60395" lon="6.09508">
        <ele>1259.8000488281</ele>
        <time>2016-10-12T12:27:24Z</time>
      </trkpt>
      <trkpt lat="44.60397" lon="6.09514">
        <ele>1260.8000488281</ele>
        <time>2016-10-12T12:27:32Z</time>
      </trkpt>
      <trkpt lat="44.6042" lon="6.09544">
        <ele>1261.5999755859</ele>
        <time>2016-10-12T12:28:00Z</time>
      </trkpt>
      <trkpt lat="44.60437" lon="6.09577">
        <ele>1262</ele>
        <time>2016-10-12T12:28:31Z</time>
      </trkpt>
      <trkpt lat="44.60452" lon="6.09595">
        <ele>1265</ele>
        <time>2016-10-12T12:28:57Z</time>
      </trkpt>
      <trkpt lat="44.60475" lon="6.09609">
        <ele>1266.4000244141</ele>
        <time>2016-10-12T12:29:19Z</time>
      </trkpt>
      <trkpt lat="44.60488" lon="6.09624">
        <ele>1266.5999755859</ele>
        <time>2016-10-12T12:29:29Z</time>
      </trkpt>
      <trkpt lat="44.60519" lon="6.09653">
        <ele>1268</ele>
        <time>2016-10-12T12:30:00Z</time>
      </trkpt>
      <trkpt lat="44.60549" lon="6.09669">
        <ele>1269.5999755859</ele>
        <time>2016-10-12T12:30:28Z</time>
      </trkpt>
      <trkpt lat="44.60573" lon="6.09668">
        <ele>1270.8000488281</ele>
        <time>2016-10-12T12:30:50Z</time>
      </trkpt>
      <trkpt lat="44.60591" lon="6.09668">
        <ele>1271</ele>
        <time>2016-10-12T12:31:13Z</time>
      </trkpt>
      <trkpt lat="44.60601" lon="6.09663">
        <ele>1271.5999755859</ele>
        <time>2016-10-12T12:31:34Z</time>
      </trkpt>
      <trkpt lat="44.60603" lon="6.09662">
        <ele>1271.5999755859</ele>
        <time>2016-10-12T12:31:36Z</time>
      </trkpt>
      <trkpt lat="44.60618" lon="6.09634">
        <ele>1272.5999755859</ele>
        <time>2016-10-12T12:31:59Z</time>
      </trkpt>
      <trkpt lat="44.60631" lon="6.09619">
        <ele>1275</ele>
        <time>2016-10-12T12:32:18Z</time>
      </trkpt>
      <trkpt lat="44.60633" lon="6.09616">
        <ele>1275.4000244141</ele>
        <time>2016-10-12T12:32:21Z</time>
      </trkpt>
      <trkpt lat="44.60651" lon="6.09595">
        <ele>1278</ele>
        <time>2016-10-12T12:32:43Z</time>
      </trkpt>
      <trkpt lat="44.60667" lon="6.0958">
        <ele>1281.1999511719</ele>
        <time>2016-10-12T12:33:05Z</time>
      </trkpt>
      <trkpt lat="44.6069" lon="6.0956">
        <ele>1284.1999511719</ele>
        <time>2016-10-12T12:33:30Z</time>
      </trkpt>
      <trkpt lat="44.60692" lon="6.09557">
        <ele>1284.8000488281</ele>
        <time>2016-10-12T12:33:33Z</time>
      </trkpt>
      <trkpt lat="44.60707" lon="6.09536">
        <ele>1287.4000244141</ele>
        <time>2016-10-12T12:33:54Z</time>
      </trkpt>
      <trkpt lat="44.6072" lon="6.09526">
        <ele>1288.8000488281</ele>
        <time>2016-10-12T12:34:09Z</time>
      </trkpt>
      <trkpt lat="44.60729" lon="6.09507">
        <ele>1289.1999511719</ele>
        <time>2016-10-12T12:34:22Z</time>
      </trkpt>
      <trkpt lat="44.60717" lon="6.0948">
        <ele>1290.5999755859</ele>
        <time>2016-10-12T12:34:44Z</time>
      </trkpt>
      <trkpt lat="44.60711" lon="6.09466">
        <ele>1290.8000488281</ele>
        <time>2016-10-12T12:34:55Z</time>
      </trkpt>
      <trkpt lat="44.60702" lon="6.09445">
        <ele>1291</ele>
        <time>2016-10-12T12:35:12Z</time>
      </trkpt>
      <trkpt lat="44.60699" lon="6.09439">
        <ele>1291</ele>
        <time>2016-10-12T12:35:16Z</time>
      </trkpt>
      <trkpt lat="44.60696" lon="6.09434">
        <ele>1291</ele>
        <time>2016-10-12T12:35:20Z</time>
      </trkpt>
      <trkpt lat="44.60692" lon="6.09428">
        <ele>1291</ele>
        <time>2016-10-12T12:35:25Z</time>
      </trkpt>
      <trkpt lat="44.6069" lon="6.09425">
        <ele>1291</ele>
        <time>2016-10-12T12:35:27Z</time>
      </trkpt>
      <trkpt lat="44.60688" lon="6.09421">
        <ele>1290.8000488281</ele>
        <time>2016-10-12T12:35:30Z</time>
      </trkpt>
      <trkpt lat="44.60685" lon="6.09404">
        <ele>1291</ele>
        <time>2016-10-12T12:35:41Z</time>
      </trkpt>
      <trkpt lat="44.60685" lon="6.09401">
        <ele>1291</ele>
        <time>2016-10-12T12:35:43Z</time>
      </trkpt>
      <trkpt lat="44.60681" lon="6.09371">
        <ele>1291.4000244141</ele>
        <time>2016-10-12T12:36:01Z</time>
      </trkpt>
      <trkpt lat="44.60681" lon="6.09362">
        <ele>1291.4000244141</ele>
        <time>2016-10-12T12:36:06Z</time>
      </trkpt>
      <trkpt lat="44.6068" lon="6.09359">
        <ele>1291.4000244141</ele>
        <time>2016-10-12T12:36:08Z</time>
      </trkpt>
      <trkpt lat="44.60672" lon="6.09338">
        <ele>1291</ele>
        <time>2016-10-12T12:36:28Z</time>
      </trkpt>
      <trkpt lat="44.60664" lon="6.09313">
        <ele>1290.8000488281</ele>
        <time>2016-10-12T12:36:45Z</time>
      </trkpt>
      <trkpt lat="44.60658" lon="6.09285">
        <ele>1290.8000488281</ele>
        <time>2016-10-12T12:37:08Z</time>
      </trkpt>
      <trkpt lat="44.60677" lon="6.09269">
        <ele>1291.1999511719</ele>
        <time>2016-10-12T12:37:32Z</time>
      </trkpt>
      <trkpt lat="44.6068" lon="6.09269">
        <ele>1291.4000244141</ele>
        <time>2016-10-12T12:37:35Z</time>
      </trkpt>
      <trkpt lat="44.60688" lon="6.0927">
        <ele>1291.5999755859</ele>
        <time>2016-10-12T12:37:43Z</time>
      </trkpt>
      <trkpt lat="44.60714" lon="6.09271">
        <ele>1291.8000488281</ele>
        <time>2016-10-12T12:38:05Z</time>
      </trkpt>
      <trkpt lat="44.60735" lon="6.09276">
        <ele>1291.5999755859</ele>
        <time>2016-10-12T12:38:25Z</time>
      </trkpt>
      <trkpt lat="44.60754" lon="6.09265">
        <ele>1293.8000488281</ele>
        <time>2016-10-12T12:38:48Z</time>
      </trkpt>
      <trkpt lat="44.60756" lon="6.09263">
        <ele>1294.4000244141</ele>
        <time>2016-10-12T12:38:51Z</time>
      </trkpt>
      <trkpt lat="44.60769" lon="6.09251">
        <ele>1297</ele>
        <time>2016-10-12T12:39:09Z</time>
      </trkpt>
      <trkpt lat="44.60795" lon="6.09241">
        <ele>1298.1999511719</ele>
        <time>2016-10-12T12:39:34Z</time>
      </trkpt>
      <trkpt lat="44.60824" lon="6.09233">
        <ele>1298.1999511719</ele>
        <time>2016-10-12T12:39:59Z</time>
      </trkpt>
      <trkpt lat="44.60848" lon="6.0923">
        <ele>1298.4000244141</ele>
        <time>2016-10-12T12:40:20Z</time>
      </trkpt>
      <trkpt lat="44.60877" lon="6.09231">
        <ele>1298.1999511719</ele>
        <time>2016-10-12T12:40:44Z</time>
      </trkpt>
      <trkpt lat="44.60904" lon="6.09228">
        <ele>1298.1999511719</ele>
        <time>2016-10-12T12:41:07Z</time>
      </trkpt>
      <trkpt lat="44.60913" lon="6.09229">
        <ele>1298.4000244141</ele>
        <time>2016-10-12T12:41:15Z</time>
      </trkpt>
      <trkpt lat="44.60939" lon="6.09231">
        <ele>1299</ele>
        <time>2016-10-12T12:41:39Z</time>
      </trkpt>
      <trkpt lat="44.60968" lon="6.09234">
        <ele>1300.1999511719</ele>
        <time>2016-10-12T12:42:06Z</time>
      </trkpt>
      <trkpt lat="44.60993" lon="6.09238">
        <ele>1299.8000488281</ele>
        <time>2016-10-12T12:42:28Z</time>
      </trkpt>
      <trkpt lat="44.61018" lon="6.09251">
        <ele>1299.1999511719</ele>
        <time>2016-10-12T12:42:52Z</time>
      </trkpt>
      <trkpt lat="44.61038" lon="6.09264">
        <ele>1298.4000244141</ele>
        <time>2016-10-12T12:43:13Z</time>
      </trkpt>
      <trkpt lat="44.61054" lon="6.09277">
        <ele>1298</ele>
        <time>2016-10-12T12:43:32Z</time>
      </trkpt>
      <trkpt lat="44.61068" lon="6.0929">
        <ele>1298</ele>
        <time>2016-10-12T12:43:53Z</time>
      </trkpt>
      <trkpt lat="44.61094" lon="6.09299">
        <ele>1297.8000488281</ele>
        <time>2016-10-12T12:44:16Z</time>
      </trkpt>
      <trkpt lat="44.61124" lon="6.09314">
        <ele>1298.5999755859</ele>
        <time>2016-10-12T12:44:43Z</time>
      </trkpt>
      <trkpt lat="44.61152" lon="6.09336">
        <ele>1298.8000488281</ele>
        <time>2016-10-12T12:45:10Z</time>
      </trkpt>
      <trkpt lat="44.61184" lon="6.09355">
        <ele>1298.5999755859</ele>
        <time>2016-10-12T12:45:39Z</time>
      </trkpt>
      <trkpt lat="44.61211" lon="6.09362">
        <ele>1298.4000244141</ele>
        <time>2016-10-12T12:46:03Z</time>
      </trkpt>
      <trkpt lat="44.61239" lon="6.09368">
        <ele>1298.4000244141</ele>
        <time>2016-10-12T12:46:27Z</time>
      </trkpt>
      <trkpt lat="44.6126" lon="6.0936">
        <ele>1298.1999511719</ele>
        <time>2016-10-12T12:46:50Z</time>
      </trkpt>
      <trkpt lat="44.61287" lon="6.09342">
        <ele>1297.8000488281</ele>
        <time>2016-10-12T12:47:16Z</time>
      </trkpt>
      <trkpt lat="44.61313" lon="6.09318">
        <ele>1296.8000488281</ele>
        <time>2016-10-12T12:47:43Z</time>
      </trkpt>
      <trkpt lat="44.61326" lon="6.09289">
        <ele>1296</ele>
        <time>2016-10-12T12:48:07Z</time>
      </trkpt>
      <trkpt lat="44.61347" lon="6.09266">
        <ele>1297.8000488281</ele>
        <time>2016-10-12T12:48:30Z</time>
      </trkpt>
      <trkpt lat="44.61365" lon="6.09244">
        <ele>1300.4000244141</ele>
        <time>2016-10-12T12:48:51Z</time>
      </trkpt>
      <trkpt lat="44.61382" lon="6.0922">
        <ele>1301.8000488281</ele>
        <time>2016-10-12T12:49:15Z</time>
      </trkpt>
      <trkpt lat="44.61403" lon="6.09205">
        <ele>1301.8000488281</ele>
        <time>2016-10-12T12:49:35Z</time>
      </trkpt>
      <trkpt lat="44.61422" lon="6.09197">
        <ele>1301.8000488281</ele>
        <time>2016-10-12T12:49:55Z</time>
      </trkpt>
      <trkpt lat="44.61426" lon="6.09194">
        <ele>1301.8000488281</ele>
        <time>2016-10-12T12:50:00Z</time>
      </trkpt>
      <trkpt lat="44.61426" lon="6.09178">
        <ele>1304.4000244141</ele>
        <time>2016-10-12T12:50:24Z</time>
      </trkpt>
      <trkpt lat="44.61417" lon="6.09168">
        <ele>1305.8000488281</ele>
        <time>2016-10-12T12:50:37Z</time>
      </trkpt>
      <trkpt lat="44.61404" lon="6.09152">
        <ele>1307.5999755859</ele>
        <time>2016-10-12T12:50:57Z</time>
      </trkpt>
      <trkpt lat="44.61419" lon="6.09113">
        <ele>1308.1999511719</ele>
        <time>2016-10-12T12:51:22Z</time>
      </trkpt>
      <trkpt lat="44.61434" lon="6.09094">
        <ele>1307.4000244141</ele>
        <time>2016-10-12T12:51:39Z</time>
      </trkpt>
      <trkpt lat="44.61454" lon="6.09073">
        <ele>1306</ele>
        <time>2016-10-12T12:52:01Z</time>
      </trkpt>
      <trkpt lat="44.61472" lon="6.09063">
        <ele>1303.4000244141</ele>
        <time>2016-10-12T12:52:20Z</time>
      </trkpt>
      <trkpt lat="44.61477" lon="6.0906">
        <ele>1302.8000488281</ele>
        <time>2016-10-12T12:52:25Z</time>
      </trkpt>
      <trkpt lat="44.61486" lon="6.0905">
        <ele>1301.4000244141</ele>
        <time>2016-10-12T12:52:34Z</time>
      </trkpt>
      <trkpt lat="44.61491" lon="6.09027">
        <ele>1303.4000244141</ele>
        <time>2016-10-12T12:52:54Z</time>
      </trkpt>
      <trkpt lat="44.61496" lon="6.09005">
        <ele>1305.8000488281</ele>
        <time>2016-10-12T12:53:16Z</time>
      </trkpt>
      <trkpt lat="44.61495" lon="6.08974">
        <ele>1307.5999755859</ele>
        <time>2016-10-12T12:53:39Z</time>
      </trkpt>
      <trkpt lat="44.61498" lon="6.08943">
        <ele>1309.1999511719</ele>
        <time>2016-10-12T12:54:02Z</time>
      </trkpt>
      <trkpt lat="44.61501" lon="6.08917">
        <ele>1312</ele>
        <time>2016-10-12T12:54:21Z</time>
      </trkpt>
      <trkpt lat="44.61505" lon="6.08885">
        <ele>1315</ele>
        <time>2016-10-12T12:54:44Z</time>
      </trkpt>
      <trkpt lat="44.61507" lon="6.08853">
        <ele>1316.8000488281</ele>
        <time>2016-10-12T12:55:07Z</time>
      </trkpt>
      <trkpt lat="44.61504" lon="6.08845">
        <ele>1318.5999755859</ele>
        <time>2016-10-12T12:55:31Z</time>
      </trkpt>
      <trkpt lat="44.61505" lon="6.08843">
        <ele>1317.8000488281</ele>
        <time>2016-10-12T12:55:57Z</time>
      </trkpt>
      <trkpt lat="44.61508" lon="6.08841">
        <ele>1317</ele>
        <time>2016-10-12T12:56:43Z</time>
      </trkpt>
      <trkpt lat="44.61512" lon="6.0884">
        <ele>1317.1999511719</ele>
        <time>2016-10-12T12:57:26Z</time>
      </trkpt>
      <trkpt lat="44.61508" lon="6.08841">
        <ele>1316.8000488281</ele>
        <time>2016-10-12T12:57:46Z</time>
      </trkpt>
      <trkpt lat="44.61511" lon="6.08828">
        <ele>1317.1999511719</ele>
        <time>2016-10-12T12:58:08Z</time>
      </trkpt>
      <trkpt lat="44.61513" lon="6.0882">
        <ele>1317.4000244141</ele>
        <time>2016-10-12T12:58:16Z</time>
      </trkpt>
      <trkpt lat="44.61511" lon="6.08809">
        <ele>1317</ele>
        <time>2016-10-12T12:58:41Z</time>
      </trkpt>
      <trkpt lat="44.6151" lon="6.08809">
        <ele>1316.8000488281</ele>
        <time>2016-10-12T12:59:25Z</time>
      </trkpt>
      <trkpt lat="44.61512" lon="6.08806">
        <ele>1317</ele>
        <time>2016-10-12T13:00:02Z</time>
      </trkpt>
      <trkpt lat="44.61515" lon="6.08791">
        <ele>1316.8000488281</ele>
        <time>2016-10-12T13:00:14Z</time>
      </trkpt>
      <trkpt lat="44.61509" lon="6.08775">
        <ele>1315.8000488281</ele>
        <time>2016-10-12T13:00:27Z</time>
      </trkpt>
      <trkpt lat="44.61507" lon="6.08772">
        <ele>1315.5999755859</ele>
        <time>2016-10-12T13:00:30Z</time>
      </trkpt>
      <trkpt lat="44.61491" lon="6.08748">
        <ele>1314.4000244141</ele>
        <time>2016-10-12T13:00:55Z</time>
      </trkpt>
      <trkpt lat="44.61464" lon="6.08708">
        <ele>1316.4000244141</ele>
        <time>2016-10-12T13:01:32Z</time>
      </trkpt>
      <trkpt lat="44.61442" lon="6.08678">
        <ele>1317.8000488281</ele>
        <time>2016-10-12T13:02:05Z</time>
      </trkpt>
      <trkpt lat="44.6141" lon="6.08644">
        <ele>1317.1999511719</ele>
        <time>2016-10-12T13:02:41Z</time>
      </trkpt>
      <trkpt lat="44.61375" lon="6.08635">
        <ele>1318</ele>
        <time>2016-10-12T13:03:13Z</time>
      </trkpt>
      <trkpt lat="44.61348" lon="6.0863">
        <ele>1318.8000488281</ele>
        <time>2016-10-12T13:03:39Z</time>
      </trkpt>
      <trkpt lat="44.61324" lon="6.08618">
        <ele>1319.1999511719</ele>
        <time>2016-10-12T13:04:04Z</time>
      </trkpt>
      <trkpt lat="44.61287" lon="6.0861">
        <ele>1318.5999755859</ele>
        <time>2016-10-12T13:04:37Z</time>
      </trkpt>
      <trkpt lat="44.61264" lon="6.08607">
        <ele>1318</ele>
        <time>2016-10-12T13:04:57Z</time>
      </trkpt>
      <trkpt lat="44.6123" lon="6.08601">
        <ele>1317.1999511719</ele>
        <time>2016-10-12T13:05:28Z</time>
      </trkpt>
      <trkpt lat="44.61192" lon="6.08598">
        <ele>1315.5999755859</ele>
        <time>2016-10-12T13:06:02Z</time>
      </trkpt>
      <trkpt lat="44.61156" lon="6.08615">
        <ele>1314.8000488281</ele>
        <time>2016-10-12T13:06:35Z</time>
      </trkpt>
      <trkpt lat="44.6114" lon="6.08633">
        <ele>1314.5999755859</ele>
        <time>2016-10-12T13:06:58Z</time>
      </trkpt>
      <trkpt lat="44.61112" lon="6.08664">
        <ele>1311.5999755859</ele>
        <time>2016-10-12T13:07:35Z</time>
      </trkpt>
      <trkpt lat="44.61086" lon="6.08688">
        <ele>1308.5999755859</ele>
        <time>2016-10-12T13:08:02Z</time>
      </trkpt>
      <trkpt lat="44.61072" lon="6.08703">
        <ele>1307.5999755859</ele>
        <time>2016-10-12T13:08:28Z</time>
      </trkpt>
      <trkpt lat="44.61072" lon="6.08708">
        <ele>1307.1999511719</ele>
        <time>2016-10-12T13:08:32Z</time>
      </trkpt>
      <trkpt lat="44.61065" lon="6.08713">
        <ele>1306.5999755859</ele>
        <time>2016-10-12T13:08:44Z</time>
      </trkpt>
      <trkpt lat="44.61063" lon="6.08727">
        <ele>1306</ele>
        <time>2016-10-12T13:08:58Z</time>
      </trkpt>
      <trkpt lat="44.61059" lon="6.08781">
        <ele>1306.1999511719</ele>
        <time>2016-10-12T13:09:32Z</time>
      </trkpt>
      <trkpt lat="44.61053" lon="6.08842">
        <ele>1306.8000488281</ele>
        <time>2016-10-12T13:10:12Z</time>
      </trkpt>
      <trkpt lat="44.61047" lon="6.08902">
        <ele>1309.5999755859</ele>
        <time>2016-10-12T13:10:50Z</time>
      </trkpt>
      <trkpt lat="44.61046" lon="6.08936">
        <ele>1311.1999511719</ele>
        <time>2016-10-12T13:11:22Z</time>
      </trkpt>
      <trkpt lat="44.61043" lon="6.08982">
        <ele>1313.5999755859</ele>
        <time>2016-10-12T13:11:54Z</time>
      </trkpt>
      <trkpt lat="44.6104" lon="6.09035">
        <ele>1313.4000244141</ele>
        <time>2016-10-12T13:12:29Z</time>
      </trkpt>
      <trkpt lat="44.61027" lon="6.0905">
        <ele>1312.1999511719</ele>
        <time>2016-10-12T13:12:47Z</time>
      </trkpt>
      <trkpt lat="44.61002" lon="6.09051">
        <ele>1310.4000244141</ele>
        <time>2016-10-12T13:13:21Z</time>
      </trkpt>
      <trkpt lat="44.60996" lon="6.0905">
        <ele>1310.1999511719</ele>
        <time>2016-10-12T13:13:57Z</time>
      </trkpt>
      <trkpt lat="44.60992" lon="6.0905">
        <ele>1310.1999511719</ele>
        <time>2016-10-12T13:14:02Z</time>
      </trkpt>
      <trkpt lat="44.60976" lon="6.09047">
        <ele>1310</ele>
        <time>2016-10-12T13:14:15Z</time>
      </trkpt>
      <trkpt lat="44.60973" lon="6.09047">
        <ele>1309.8000488281</ele>
        <time>2016-10-12T13:14:17Z</time>
      </trkpt>
      <trkpt lat="44.60931" lon="6.09039">
        <ele>1308.4000244141</ele>
        <time>2016-10-12T13:14:54Z</time>
      </trkpt>
      <trkpt lat="44.6089" lon="6.09035">
        <ele>1308</ele>
        <time>2016-10-12T13:15:29Z</time>
      </trkpt>
      <trkpt lat="44.60885" lon="6.09034">
        <ele>1308.1999511719</ele>
        <time>2016-10-12T13:15:34Z</time>
      </trkpt>
      <trkpt lat="44.60856" lon="6.09026">
        <ele>1308.4000244141</ele>
        <time>2016-10-12T13:15:59Z</time>
      </trkpt>
      <trkpt lat="44.60823" lon="6.09019">
        <ele>1309.5999755859</ele>
        <time>2016-10-12T13:16:27Z</time>
      </trkpt>
      <trkpt lat="44.60815" lon="6.09017">
        <ele>1309.8000488281</ele>
        <time>2016-10-12T13:16:34Z</time>
      </trkpt>
      <trkpt lat="44.60799" lon="6.09014">
        <ele>1310.4000244141</ele>
        <time>2016-10-12T13:16:48Z</time>
      </trkpt>
      <trkpt lat="44.60775" lon="6.09015">
        <ele>1310.8000488281</ele>
        <time>2016-10-12T13:17:09Z</time>
      </trkpt>
      <trkpt lat="44.60761" lon="6.09025">
        <ele>1309.8000488281</ele>
        <time>2016-10-12T13:17:32Z</time>
      </trkpt>
      <trkpt lat="44.60737" lon="6.09054">
        <ele>1307.4000244141</ele>
        <time>2016-10-12T13:18:04Z</time>
      </trkpt>
      <trkpt lat="44.60725" lon="6.09064">
        <ele>1306.4000244141</ele>
        <time>2016-10-12T13:18:28Z</time>
      </trkpt>
      <trkpt lat="44.60701" lon="6.09049">
        <ele>1304.5999755859</ele>
        <time>2016-10-12T13:19:02Z</time>
      </trkpt>
      <trkpt lat="44.60694" lon="6.09034">
        <ele>1304</ele>
        <time>2016-10-12T13:19:27Z</time>
      </trkpt>
      <trkpt lat="44.60682" lon="6.09017">
        <ele>1300.8000488281</ele>
        <time>2016-10-12T13:19:50Z</time>
      </trkpt>
      <trkpt lat="44.60673" lon="6.09007">
        <ele>1297.5999755859</ele>
        <time>2016-10-12T13:20:07Z</time>
      </trkpt>
      <trkpt lat="44.60661" lon="6.09012">
        <ele>1294.4000244141</ele>
        <time>2016-10-12T13:20:33Z</time>
      </trkpt>
      <trkpt lat="44.60652" lon="6.09005">
        <ele>1292.4000244141</ele>
        <time>2016-10-12T13:20:53Z</time>
      </trkpt>
      <trkpt lat="44.60649" lon="6.08996">
        <ele>1292.1999511719</ele>
        <time>2016-10-12T13:20:58Z</time>
      </trkpt>
      <trkpt lat="44.60632" lon="6.0897">
        <ele>1292.4000244141</ele>
        <time>2016-10-12T13:21:19Z</time>
      </trkpt>
      <trkpt lat="44.60621" lon="6.08942">
        <ele>1289.5999755859</ele>
        <time>2016-10-12T13:21:40Z</time>
      </trkpt>
      <trkpt lat="44.60607" lon="6.0891">
        <ele>1288</ele>
        <time>2016-10-12T13:22:05Z</time>
      </trkpt>
      <trkpt lat="44.6059" lon="6.0887">
        <ele>1287.1999511719</ele>
        <time>2016-10-12T13:22:36Z</time>
      </trkpt>
      <trkpt lat="44.60574" lon="6.08829">
        <ele>1287.5999755859</ele>
        <time>2016-10-12T13:23:07Z</time>
      </trkpt>
      <trkpt lat="44.60558" lon="6.08792">
        <ele>1287.8000488281</ele>
        <time>2016-10-12T13:23:35Z</time>
      </trkpt>
      <trkpt lat="44.60553" lon="6.08766">
        <ele>1287.5999755859</ele>
        <time>2016-10-12T13:23:58Z</time>
      </trkpt>
      <trkpt lat="44.6055" lon="6.08717">
        <ele>1287.4000244141</ele>
        <time>2016-10-12T13:24:30Z</time>
      </trkpt>
      <trkpt lat="44.60548" lon="6.08666">
        <ele>1287</ele>
        <time>2016-10-12T13:25:03Z</time>
      </trkpt>
      <trkpt lat="44.60547" lon="6.08616">
        <ele>1285.4000244141</ele>
        <time>2016-10-12T13:25:36Z</time>
      </trkpt>
      <trkpt lat="44.60557" lon="6.08596">
        <ele>1286</ele>
        <time>2016-10-12T13:25:59Z</time>
      </trkpt>
      <trkpt lat="44.60555" lon="6.08586">
        <ele>1285.8000488281</ele>
        <time>2016-10-12T13:26:09Z</time>
      </trkpt>
      <trkpt lat="44.60531" lon="6.08571">
        <ele>1283.8000488281</ele>
        <time>2016-10-12T13:26:46Z</time>
      </trkpt>
      <trkpt lat="44.60513" lon="6.08586">
        <ele>1282.1999511719</ele>
        <time>2016-10-12T13:27:14Z</time>
      </trkpt>
      <trkpt lat="44.60492" lon="6.08597">
        <ele>1281.4000244141</ele>
        <time>2016-10-12T13:27:38Z</time>
      </trkpt>
      <trkpt lat="44.60454" lon="6.08615">
        <ele>1281.5999755859</ele>
        <time>2016-10-12T13:28:13Z</time>
      </trkpt>
      <trkpt lat="44.60427" lon="6.08642">
        <ele>1282.1999511719</ele>
        <time>2016-10-12T13:28:46Z</time>
      </trkpt>
      <trkpt lat="44.60421" lon="6.08662">
        <ele>1282.8000488281</ele>
        <time>2016-10-12T13:29:01Z</time>
      </trkpt>
      <trkpt lat="44.60401" lon="6.08706">
        <ele>1283</ele>
        <time>2016-10-12T13:29:37Z</time>
      </trkpt>
      <trkpt lat="44.60387" lon="6.08716">
        <ele>1282.8000488281</ele>
        <time>2016-10-12T13:29:51Z</time>
      </trkpt>
      <trkpt lat="44.60352" lon="6.08729">
        <ele>1280.1999511719</ele>
        <time>2016-10-12T13:30:17Z</time>
      </trkpt>
      <trkpt lat="44.60324" lon="6.08739">
        <ele>1277</ele>
        <time>2016-10-12T13:30:52Z</time>
      </trkpt>
      <trkpt lat="44.60309" lon="6.08744">
        <ele>1274.8000488281</ele>
        <time>2016-10-12T13:31:25Z</time>
      </trkpt>
      <trkpt lat="44.60288" lon="6.08745">
        <ele>1272.1999511719</ele>
        <time>2016-10-12T13:31:56Z</time>
      </trkpt>
      <trkpt lat="44.60277" lon="6.0873">
        <ele>1269.5999755859</ele>
        <time>2016-10-12T13:32:24Z</time>
      </trkpt>
      <trkpt lat="44.6028" lon="6.08706">
        <ele>1266.8000488281</ele>
        <time>2016-10-12T13:32:53Z</time>
      </trkpt>
      <trkpt lat="44.60284" lon="6.08692">
        <ele>1266</ele>
        <time>2016-10-12T13:33:26Z</time>
      </trkpt>
      <trkpt lat="44.60287" lon="6.08675">
        <ele>1264.8000488281</ele>
        <time>2016-10-12T13:33:54Z</time>
      </trkpt>
      <trkpt lat="44.6029" lon="6.08656">
        <ele>1263.8000488281</ele>
        <time>2016-10-12T13:34:10Z</time>
      </trkpt>
      <trkpt lat="44.60289" lon="6.08626">
        <ele>1261.5999755859</ele>
        <time>2016-10-12T13:34:32Z</time>
      </trkpt>
      <trkpt lat="44.60288" lon="6.08616">
        <ele>1260.5999755859</ele>
        <time>2016-10-12T13:34:42Z</time>
      </trkpt>
      <trkpt lat="44.60287" lon="6.08607">
        <ele>1260.1999511719</ele>
        <time>2016-10-12T13:34:47Z</time>
      </trkpt>
      <trkpt lat="44.60287" lon="6.08595">
        <ele>1259.1999511719</ele>
        <time>2016-10-12T13:35:00Z</time>
      </trkpt>
      <trkpt lat="44.60289" lon="6.08556">
        <ele>1257.5999755859</ele>
        <time>2016-10-12T13:35:28Z</time>
      </trkpt>
      <trkpt lat="44.6029" lon="6.08555">
        <ele>1257.4000244141</ele>
        <time>2016-10-12T13:35:59Z</time>
      </trkpt>
      <trkpt lat="44.60286" lon="6.08541">
        <ele>1257</ele>
        <time>2016-10-12T13:36:28Z</time>
      </trkpt>
      <trkpt lat="44.60268" lon="6.08532">
        <ele>1254.5999755859</ele>
        <time>2016-10-12T13:36:57Z</time>
      </trkpt>
      <trkpt lat="44.60255" lon="6.08527">
        <ele>1252.4000244141</ele>
        <time>2016-10-12T13:37:13Z</time>
      </trkpt>
      <trkpt lat="44.60238" lon="6.08517">
        <ele>1249.4000244141</ele>
        <time>2016-10-12T13:37:38Z</time>
      </trkpt>
      <trkpt lat="44.60226" lon="6.0851">
        <ele>1246.1999511719</ele>
        <time>2016-10-12T13:37:59Z</time>
      </trkpt>
      <trkpt lat="44.60214" lon="6.08506">
        <ele>1243</ele>
        <time>2016-10-12T13:38:16Z</time>
      </trkpt>
      <trkpt lat="44.60203" lon="6.08502">
        <ele>1241.1999511719</ele>
        <time>2016-10-12T13:38:40Z</time>
      </trkpt>
      <trkpt lat="44.60189" lon="6.08497">
        <ele>1239.4000244141</ele>
        <time>2016-10-12T13:39:07Z</time>
      </trkpt>
      <trkpt lat="44.60186" lon="6.08495">
        <ele>1239.4000244141</ele>
        <time>2016-10-12T13:39:12Z</time>
      </trkpt>
      <trkpt lat="44.60182" lon="6.08494">
        <ele>1239.1999511719</ele>
        <time>2016-10-12T13:39:16Z</time>
      </trkpt>
      <trkpt lat="44.6016" lon="6.08493">
        <ele>1236.8000488281</ele>
        <time>2016-10-12T13:39:45Z</time>
      </trkpt>
      <trkpt lat="44.60158" lon="6.08494">
        <ele>1236.5999755859</ele>
        <time>2016-10-12T13:39:47Z</time>
      </trkpt>
      <trkpt lat="44.60137" lon="6.08523">
        <ele>1234</ele>
        <time>2016-10-12T13:40:13Z</time>
      </trkpt>
      <trkpt lat="44.60113" lon="6.08549">
        <ele>1231.4000244141</ele>
        <time>2016-10-12T13:40:40Z</time>
      </trkpt>
      <trkpt lat="44.60104" lon="6.08557">
        <ele>1229.8000488281</ele>
        <time>2016-10-12T13:40:59Z</time>
      </trkpt>
      <trkpt lat="44.60102" lon="6.08558">
        <ele>1229.8000488281</ele>
        <time>2016-10-12T13:41:01Z</time>
      </trkpt>
      <trkpt lat="44.6009" lon="6.08564">
        <ele>1228</ele>
        <time>2016-10-12T13:41:16Z</time>
      </trkpt>
      <trkpt lat="44.60083" lon="6.08552">
        <ele>1226.8000488281</ele>
        <time>2016-10-12T13:41:40Z</time>
      </trkpt>
      <trkpt lat="44.60081" lon="6.08529">
        <ele>1225.4000244141</ele>
        <time>2016-10-12T13:42:21Z</time>
      </trkpt>
      <trkpt lat="44.60074" lon="6.08516">
        <ele>1222.4000244141</ele>
        <time>2016-10-12T13:42:36Z</time>
      </trkpt>
      <trkpt lat="44.60071" lon="6.08503">
        <ele>1219.1999511719</ele>
        <time>2016-10-12T13:42:55Z</time>
      </trkpt>
      <trkpt lat="44.60065" lon="6.08491">
        <ele>1216.1999511719</ele>
        <time>2016-10-12T13:43:11Z</time>
      </trkpt>
      <trkpt lat="44.60055" lon="6.08482">
        <ele>1213.1999511719</ele>
        <time>2016-10-12T13:43:29Z</time>
      </trkpt>
      <trkpt lat="44.60042" lon="6.08478">
        <ele>1210</ele>
        <time>2016-10-12T13:43:51Z</time>
      </trkpt>
      <trkpt lat="44.60033" lon="6.08474">
        <ele>1207</ele>
        <time>2016-10-12T13:44:07Z</time>
      </trkpt>
      <trkpt lat="44.60026" lon="6.08468">
        <ele>1205.5999755859</ele>
        <time>2016-10-12T13:44:29Z</time>
      </trkpt>
      <trkpt lat="44.60014" lon="6.08468">
        <ele>1202.4000244141</ele>
        <time>2016-10-12T13:44:46Z</time>
      </trkpt>
      <trkpt lat="44.60003" lon="6.08472">
        <ele>1199.4000244141</ele>
        <time>2016-10-12T13:45:02Z</time>
      </trkpt>
      <trkpt lat="44.59994" lon="6.08478">
        <ele>1195.8000488281</ele>
        <time>2016-10-12T13:45:15Z</time>
      </trkpt>
      <trkpt lat="44.59989" lon="6.08484">
        <ele>1194.4000244141</ele>
        <time>2016-10-12T13:45:23Z</time>
      </trkpt>
      <trkpt lat="44.59977" lon="6.08492">
        <ele>1191</ele>
        <time>2016-10-12T13:45:40Z</time>
      </trkpt>
      <trkpt lat="44.59967" lon="6.08485">
        <ele>1188</ele>
        <time>2016-10-12T13:45:53Z</time>
      </trkpt>
      <trkpt lat="44.59958" lon="6.08486">
        <ele>1185</ele>
        <time>2016-10-12T13:46:06Z</time>
      </trkpt>
      <trkpt lat="44.59947" lon="6.08483">
        <ele>1181.8000488281</ele>
        <time>2016-10-12T13:46:21Z</time>
      </trkpt>
      <trkpt lat="44.59938" lon="6.08479">
        <ele>1178.5999755859</ele>
        <time>2016-10-12T13:46:34Z</time>
      </trkpt>
      <trkpt lat="44.59928" lon="6.08475">
        <ele>1175.5999755859</ele>
        <time>2016-10-12T13:46:51Z</time>
      </trkpt>
      <trkpt lat="44.59915" lon="6.08475">
        <ele>1173</ele>
        <time>2016-10-12T13:47:20Z</time>
      </trkpt>
      <trkpt lat="44.59892" lon="6.08489">
        <ele>1170.8000488281</ele>
        <time>2016-10-12T13:47:50Z</time>
      </trkpt>
      <trkpt lat="44.59872" lon="6.08499">
        <ele>1167.8000488281</ele>
        <time>2016-10-12T13:48:19Z</time>
      </trkpt>
      <trkpt lat="44.59855" lon="6.08508">
        <ele>1164.5999755859</ele>
        <time>2016-10-12T13:48:40Z</time>
      </trkpt>
      <trkpt lat="44.59838" lon="6.08514">
        <ele>1161.4000244141</ele>
        <time>2016-10-12T13:49:07Z</time>
      </trkpt>
      <trkpt lat="44.5982" lon="6.08523">
        <ele>1158.4000244141</ele>
        <time>2016-10-12T13:49:30Z</time>
      </trkpt>
      <trkpt lat="44.59808" lon="6.0853">
        <ele>1155.8000488281</ele>
        <time>2016-10-12T13:49:49Z</time>
      </trkpt>
      <trkpt lat="44.59805" lon="6.08571">
        <ele>1152.5999755859</ele>
        <time>2016-10-12T13:50:17Z</time>
      </trkpt>
      <trkpt lat="44.598" lon="6.08585">
        <ele>1150.8000488281</ele>
        <time>2016-10-12T13:50:46Z</time>
      </trkpt>
      <trkpt lat="44.59799" lon="6.0858">
        <ele>1150</ele>
        <time>2016-10-12T13:51:22Z</time>
      </trkpt>
      <trkpt lat="44.59798" lon="6.08582">
        <ele>1150.1999511719</ele>
        <time>2016-10-12T13:52:01Z</time>
      </trkpt>
      <trkpt lat="44.59794" lon="6.08583">
        <ele>1150.8000488281</ele>
        <time>2016-10-12T13:52:44Z</time>
      </trkpt>
      <trkpt lat="44.59794" lon="6.08583">
        <ele>1130.5999755859</ele>
        <time>2016-10-12T13:53:06Z</time>
      </trkpt>
    </trkseg>
  </trk>
</gpx>